Погода Курендина 2 недели

Аура, Мальта

25 июля-07 августа
  • 25июля
    Сегодня
    +23°
    +32°
    Ясно и безоблачно
    ВремяПогодаТемператураВлажностьДавлениеВетер, м/сВероятность осадков
    02:00Ясно и безоблачно+25°C86 %748 мм4.3 м/с2 %
    05:00Ясно и безоблачно+25°C90 %747 мм4.4 м/с2 %
    08:00Ясно и безоблачно+27°C83 %748 мм4.4 м/с2 %
    11:00Ясно и безоблачно+30°C72 %748 мм5.5 м/с2 %
    14:00Ясно и безоблачно+32°C69 %748 мм5.6 м/с2 %
    17:00Ясно и безоблачно+31°C69 %748 мм4.5 м/с2 %
    20:00Ясно и безоблачно+27°C82 %747 мм3.7 м/с2 %
    23:00Ясно и безоблачно+25°C87 %748 мм1.7 м/с2 %
  • 26июля
    Пятница
    +23°
    +32°
    Ясно и безоблачно
    ВремяПогодаТемператураВлажностьДавлениеВетер, м/сВероятность осадков
    02:00Ясно и безоблачно+24°C91 %748 мм1.5 м/с2 %
    05:00Ясно и безоблачно+24°C92 %748 мм1.7 м/с2 %
    08:00Ясно и безоблачно+26°C83 %749 мм1.7 м/с2 %
    11:00Ясно и безоблачно+30°C67 %750 мм2.3 м/с2 %
    14:00Ясно и безоблачно+31°C65 %750 мм4.0 м/с2 %
    17:00Ясно и безоблачно+30°C65 %750 мм3.9 м/с2 %
    20:00Ясно и безоблачно+27°C72 %750 мм3.1 м/с2 %
    23:00Ясно и безоблачно+25°C81 %751 мм1.9 м/с2 %
  • 27июля
    Суббота
    +24°
    +33°
    Ясно и безоблачно
    ВремяПогодаТемператураВлажностьДавлениеВетер, м/сВероятность осадков
    02:00Ясно и безоблачно+24°C84 %751 мм0.7 м/с2 %
    05:00Ясно и безоблачно+24°C88 %750 мм1.3 м/с2 %
    08:00Ясно и безоблачно+27°C79 %752 мм0.9 м/с2 %
    11:00Ясно и безоблачно+31°C62 %753 мм2.3 м/с2 %
    14:00Ясно и безоблачно+33°C63 %753 мм3.3 м/с2 %
    17:00Ясно и безоблачно+32°C65 %752 мм2.9 м/с2 %
    20:00Ясно и безоблачно+28°C73 %752 мм2.9 м/с2 %
    23:00Ясно и безоблачно+26°C77 %753 мм1.9 м/с2 %
  • 28июля
    Воскресенье
    +24°
    +33°
    Ясно и безоблачно
    ВремяПогодаТемператураВлажностьДавлениеВетер, м/сВероятность осадков
    02:00Ясно и безоблачно+25°C83 %753 мм1.6 м/с2 %
    05:00Ясно и безоблачно+25°C88 %752 мм2.4 м/с2 %
    08:00Ясно и безоблачно+28°C76 %754 мм2.5 м/с2 %
    11:00Ясно и безоблачно+31°C63 %754 мм3.3 м/с2 %
    14:00Ясно и безоблачно+33°C60 %754 мм3.6 м/с2 %
    17:00Ясно и безоблачно+32°C62 %753 мм2.9 м/с2 %
    20:00Ясно и безоблачно+28°C66 %753 мм3.2 м/с2 %
    23:00Ясно и безоблачно+26°C69 %753 мм1.7 м/с2 %
  • 29июля
    Понедельник
    +24°
    +34°
    Ясно и безоблачно
    ВремяПогодаТемператураВлажностьДавлениеВетер, м/сВероятность осадков
    02:00Ясно и безоблачно+25°C77 %752 мм1.5 м/с2 %
    05:00Ясно и безоблачно+25°C85 %752 мм2.0 м/с2 %
    08:00Ясно и безоблачно+28°C76 %753 мм2.6 м/с2 %
    11:00Ясно и безоблачно+31°C64 %753 мм3.6 м/с2 %
    14:00Ясно и безоблачно+34°C65 %752 мм4.0 м/с2 %
    17:00Ясно и безоблачно+33°C66 %751 мм3.1 м/с2 %
    20:00Ясно и безоблачно+29°C76 %750 мм3.3 м/с2 %
    23:00Ясно и безоблачно+27°C82 %751 мм1.9 м/с2 %
Мы используем cookies
Соглашаюсь